Time;durP1;ratioP1;P1;durP2;ratioP2;P2;SDS_P1;SDS_P2;PMS_P1;PMS_P2;Temp;Humidity;BMP_temperature;BMP_pressure;BME280_temperature;BME280_humidity;BME280_pressure;Samples;Min_cycle;Max_cycle;Signal;HPM_P1;HPM_P2
2024/04/04 00:03:39;;;;;;;0.80;0.80;;;;;;;9.22;66.31;99378.44;10418715;28;20045;-64
2024/04/04 00:08:40;;;;;;;1.30;0.70;;;;;;;9.10;66.44;99374.81;10434026;28;20396;-64
2024/04/04 00:13:41;;;;;;;3.17;1.00;;;;;;;9.05;66.51;99369.06;10417807;28;20044;-64
2024/04/04 00:18:42;;;;;;;1.10;0.90;;;;;;;8.96;66.44;99372.22;10433778;28;20488;-64
2024/04/04 00:23:43;;;;;;;1.13;0.90;;;;;;;8.89;66.65;99373.56;10434297;28;20447;-63
2024/04/04 00:28:44;;;;;;;1.83;0.82;;;;;;;8.88;66.62;99369.25;10431689;28;20056;-63
2024/04/04 00:33:46;;;;;;;0.95;0.80;;;;;;;8.88;66.75;99378.84;10433874;28;20059;-63
2024/04/04 00:38:47;;;;;;;1.02;0.80;;;;;;;8.80;66.71;99374.13;10417493;28;20125;-63
2024/04/04 00:43:48;;;;;;;1.45;1.08;;;;;;;8.64;66.82;99365.56;10433051;28;20131;-63
2024/04/04 00:48:49;;;;;;;1.17;1.00;;;;;;;8.57;66.76;99359.88;10415559;28;20040;-63
2024/04/04 00:53:53;;;;;;;1.98;0.90;;;;;;;8.54;66.97;99357.47;10432229;28;20049;-63
2024/04/04 00:58:54;;;;;;;1.95;0.77;;;;;;;8.59;66.93;99358.00;10415548;28;20087;-63
2024/04/04 01:03:55;;;;;;;2.55;1.50;;;;;;;8.69;66.84;99342.63;10399815;28;20264;-63
2024/04/04 01:08:58;;;;;;;6.50;1.60;;;;;;;8.80;66.70;99337.59;10414544;28;20524;-63
2024/04/04 01:13:59;;;;;;;4.45;1.50;;;;;;;8.80;66.91;99329.78;10415648;28;20040;-63
2024/04/04 01:19:00;;;;;;;3.25;0.95;;;;;;;8.97;66.57;99324.38;10398523;28;20523;-63
2024/04/04 01:24:01;;;;;;;1.85;0.95;;;;;;;8.99;66.47;99327.72;10431436;28;20296;-63
2024/04/04 01:29:02;;;;;;;1.30;0.80;;;;;;;9.00;66.38;99328.53;10415284;28;20428;-63
2024/04/04 01:34:03;;;;;;;2.63;1.58;;;;;;;9.05;66.32;99323.88;10431592;28;20091;-64
2024/04/04 01:39:04;;;;;;;1.50;1.08;;;;;;;9.04;66.30;99317.81;10413060;28;20045;-63
2024/04/04 01:44:06;;;;;;;0.93;0.80;;;;;;;8.85;66.15;99309.50;10431010;28;20048;-63
2024/04/04 01:49:07;;;;;;;3.08;1.27;;;;;;;8.66;66.18;99308.94;10447074;28;20095;-63
2024/04/04 01:54:10;;;;;;;0.70;0.70;;;;;;;8.72;66.42;99304.19;10430105;28;20056;-64
2024/04/04 01:59:11;;;;;;;1.95;0.98;;;;;;;8.57;66.56;99306.91;10430966;28;20053;-63
2024/04/04 02:04:12;;;;;;;1.42;0.98;;;;;;;8.67;66.81;99295.81;10430979;28;20529;-63
2024/04/04 02:09:13;;;;;;;1.98;1.00;;;;;;;8.75;66.70;99283.13;10430632;28;20045;-63
2024/04/04 02:14:14;;;;;;;2.10;1.10;;;;;;;8.74;66.44;99285.84;10430293;28;20061;-63
2024/04/04 02:19:15;;;;;;;1.65;1.10;;;;;;;8.74;66.76;99281.47;10415087;28;20053;-63
2024/04/04 02:24:16;;;;;;;2.38;1.67;;;;;;;8.86;66.49;99261.59;10438997;28;20087;-63
2024/04/04 02:29:17;;;;;;;3.10;1.40;;;;;;;8.98;66.21;99254.78;10437269;28;20049;-63
2024/04/04 02:34:18;;;;;;;5.43;1.65;;;;;;;9.04;66.34;99252.63;10455261;28;20505;-63
2024/04/04 02:39:19;;;;;;;1.90;1.08;;;;;;;9.17;66.19;99252.66;10421112;28;20049;-64
2024/04/04 02:44:20;;;;;;;3.20;1.67;;;;;;;9.17;65.89;99248.28;10421884;28;20052;-64
2024/04/04 02:49:21;;;;;;;3.60;0.90;;;;;;;9.13;65.92;99241.59;10437656;28;20687;-63
2024/04/04 02:54:22;;;;;;;2.40;1.42;;;;;;;9.06;66.00;99240.31;10437738;28;20043;-63
2024/04/04 02:59:23;;;;;;;2.35;1.45;;;;;;;9.15;66.15;99226.69;10420484;28;20410;-63
2024/04/04 03:04:24;;;;;;;0.98;0.70;;;;;;;9.18;65.96;99229.06;10438071;28;20155;-63
2024/04/04 03:09:25;;;;;;;0.90;0.90;;;;;;;9.30;65.99;99222.25;10437158;28;20037;-63
2024/04/04 03:14:26;;;;;;;1.02;0.90;;;;;;;9.35;65.79;99223.59;10403080;28;20512;-63
2024/04/04 03:19:27;;;;;;;2.42;1.00;;;;;;;9.30;65.65;99220.44;10434504;28;20049;-63
2024/04/04 03:24:28;;;;;;;1.20;0.95;;;;;;;9.36;65.70;99219.22;10434645;28;20045;-63
2024/04/04 03:29:29;;;;;;;1.52;1.10;;;;;;;9.40;66.01;99210.25;10417367;28;20435;-63
2024/04/04 03:34:30;;;;;;;3.80;1.27;;;;;;;9.29;66.14;99200.53;10417734;28;20049;-64
2024/04/04 03:39:31;;;;;;;1.40;1.05;;;;;;;9.24;66.00;99196.56;10434287;28;20152;-63
2024/04/04 03:44:32;;;;;;;0.73;0.73;;;;;;;9.25;66.15;99206.03;10433559;28;20056;-63
2024/04/04 03:49:33;;;;;;;1.00;0.95;;;;;;;9.43;66.28;99191.78;10432995;28;20029;-63
2024/04/04 03:54:34;;;;;;;4.15;1.10;;;;;;;9.59;65.96;99182.81;10433432;28;20090;-63
2024/04/04 03:59:35;;;;;;;1.95;1.25;;;;;;;9.59;65.77;99167.16;10415808;28;20565;-63
2024/04/04 04:04:36;;;;;;;1.35;1.00;;;;;;;9.61;65.92;99157.44;10416358;28;20041;-63
2024/04/04 04:09:37;;;;;;;2.05;1.38;;;;;;;9.52;65.74;99155.44;10431410;28;20056;-63
2024/04/04 04:14:38;;;;;;;4.35;1.48;;;;;;;9.59;65.87;99156.72;10391211;28;1225777;-64
2024/04/04 04:19:39;;;;;;;2.05;1.15;;;;;;;9.59;65.90;99148.03;10434166;28;20122;-63
2024/04/04 04:24:40;;;;;;;4.15;1.02;;;;;;;9.50;66.08;99154.72;10431741;28;20071;-63
2024/04/04 04:29:41;;;;;;;1.33;1.15;;;;;;;9.58;65.95;99160.25;10430869;28;20405;-63
2024/04/04 04:34:42;;;;;;;2.90;1.33;;;;;;;9.62;66.02;99158.28;10430842;28;20063;-64
2024/04/04 04:39:43;;;;;;;1.30;1.20;;;;;;;9.65;66.02;99164.13;10427966;28;20041;-63
2024/04/04 04:44:44;;;;;;;3.65;1.35;;;;;;;9.59;65.87;99159.31;10428815;28;20052;-63
2024/04/04 04:49:45;;;;;;;0.80;0.80;;;;;;;9.61;66.11;99157.44;10411560;28;20049;-63
2024/04/04 04:54:46;;;;;;;1.23;1.13;;;;;;;9.84;66.07;99152.44;10412803;28;20037;-63
2024/04/04 04:59:47;;;;;;;1.27;0.90;;;;;;;9.98;66.55;99142.72;10430978;28;20208;-65
2024/04/04 05:04:48;;;;;;;2.70;0.85;;;;;;;10.23;66.64;99131.38;10430206;28;20760;-63
2024/04/04 05:09:49;;;;;;;0.98;0.90;;;;;;;10.50;66.76;99132.03;10413168;28;20052;-63
2024/04/04 05:14:51;;;;;;;1.13;0.80;;;;;;;10.73;66.68;99133.81;10411327;28;20053;-63
2024/04/04 05:19:52;;;;;;;3.22;0.93;;;;;;;10.90;66.60;99127.34;10429045;28;20051;-64
2024/04/04 05:24:53;;;;;;;2.97;0.90;;;;;;;11.06;66.55;99118.28;10413615;28;20053;-64
2024/04/04 05:29:54;;;;;;;0.68;0.68;;;;;;;11.18;66.48;99111.28;10429153;28;20052;-63
2024/04/04 05:34:56;;;;;;;3.92;0.93;;;;;;;11.25;66.65;99109.91;10428649;28;20098;-65
2024/04/04 05:39:57;;;;;;;3.20;0.88;;;;;;;11.38;66.54;99094.09;10427655;28;20049;-63
2024/04/04 05:44:59;;;;;;;0.77;0.65;;;;;;;11.59;66.19;99098.50;10427569;28;20075;-63
2024/04/04 05:50:00;;;;;;;2.25;1.08;;;;;;;11.67;66.17;99093.53;10410920;28;20591;-64
2024/04/04 05:55:02;;;;;;;2.00;0.93;;;;;;;11.78;65.83;99090.91;10428050;28;20107;-64
2024/04/04 06:00:08;;;;;;;2.05;0.88;;;;;;;11.96;65.89;99086.00;10411912;28;20040;-63
2024/04/04 06:05:14;;;;;;;2.72;1.10;;;;;;;12.06;65.47;99086.94;10431070;28;20519;-63
2024/04/04 06:10:15;;;;;;;3.70;1.25;;;;;;;11.93;65.78;99083.63;10430808;28;20072;-63
2024/04/04 06:15:16;;;;;;;2.72;1.20;;;;;;;12.02;65.35;99073.25;10414221;28;20144;-63
2024/04/04 06:20:18;;;;;;;3.20;1.02;;;;;;;12.14;65.37;99068.81;10414510;28;20107;-63
2024/04/04 06:25:19;;;;;;;3.13;0.82;;;;;;;12.12;65.17;99066.34;10430998;28;20132;-64
2024/04/04 06:30:20;;;;;;;2.08;0.85;;;;;;;12.24;65.21;99067.13;10414583;28;20056;-64
2024/04/04 06:35:21;;;;;;;1.98;1.10;;;;;;;12.30;65.22;99063.22;10413425;28;20049;-63
2024/04/04 06:40:22;;;;;;;1.52;1.00;;;;;;;12.39;65.22;99063.31;10414532;28;20048;-64
2024/04/04 06:45:23;;;;;;;1.30;0.90;;;;;;;12.35;65.49;99058.44;10413159;28;20048;-63
2024/04/04 06:50:28;;;;;;;1.25;0.90;;;;;;;12.48;65.56;99043.38;10429127;28;20106;-63
2024/04/04 06:55:30;;;;;;;8.75;2.60;;;;;;;12.63;65.47;99047.38;10412820;28;20045;-64
2024/04/04 07:00:31;;;;;;;2.30;0.95;;;;;;;12.67;65.33;99038.28;10429076;28;20045;-63
2024/04/04 07:05:32;;;;;;;1.02;0.80;;;;;;;12.72;65.01;99047.44;10430931;28;20056;-64
2024/04/04 07:10:34;;;;;;;1.52;1.00;;;;;;;12.55;65.92;99045.38;10437182;28;20089;-64
2024/04/04 07:15:36;;;;;;;2.30;1.00;;;;;;;12.64;65.76;99033.31;10437057;28;20153;-63
2024/04/04 07:20:37;;;;;;;2.80;1.48;;;;;;;12.78;65.68;99033.81;10436483;28;20109;-64
2024/04/04 07:25:38;;;;;;;3.33;1.35;;;;;;;12.88;65.65;99032.09;10420742;28;20095;-64
2024/04/04 07:30:39;;;;;;;1.35;0.90;;;;;;;12.89;65.48;99030.31;10419866;28;20052;-64
2024/04/04 07:35:41;;;;;;;1.63;1.00;;;;;;;12.92;65.59;99032.69;10436017;28;20041;-64
2024/04/04 07:40:42;;;;;;;0.60;0.60;;;;;;;12.95;65.98;99021.91;10433335;28;20041;-63
2024/04/04 07:45:44;;;;;;;2.38;0.90;;;;;;;13.00;65.49;99013.66;10415091;28;20094;-64
2024/04/04 07:50:46;;;;;;;2.17;1.27;;;;;;;12.76;65.83;99019.97;10431793;28;20484;-64
2024/04/04 07:55:47;;;;;;;1.38;0.88;;;;;;;12.76;66.01;99012.13;10431038;28;20045;-64
2024/04/04 08:00:48;;;;;;;0.65;0.65;;;;;;;12.76;66.01;99022.59;10431512;28;20048;-64
2024/04/04 08:05:49;;;;;;;0.85;0.60;;;;;;;12.62;66.28;99019.50;10430701;28;20075;-63
2024/04/04 08:10:51;;;;;;;1.33;0.68;;;;;;;12.78;66.35;99010.19;10413591;28;20592;-63
2024/04/04 08:15:52;;;;;;;0.55;0.50;;;;;;;13.03;65.77;99006.34;10414070;28;20449;-64
2024/04/04 08:20:53;;;;;;;0.52;0.45;;;;;;;13.11;65.39;99011.78;10427666;28;20297;-64
2024/04/04 08:25:55;;;;;;;1.77;0.93;;;;;;;13.15;65.08;99009.75;10413967;28;20110;-64
2024/04/04 08:30:57;;;;;;;2.45;0.73;;;;;;;13.08;65.38;99011.22;10429199;28;20482;-64
2024/04/04 08:35:58;;;;;;;0.73;0.50;;;;;;;12.92;65.45;99012.50;10430344;28;20048;-63
2024/04/04 08:41:09;;;;;;;3.40;0.65;;;;;;;13.24;64.24;99022.09;10428210;28;20041;-63
2024/04/04 08:46:11;;;;;;;2.45;0.43;;;;;;;13.09;64.62;99020.78;10412600;28;20045;-63
2024/04/04 08:51:13;;;;;;;0.40;0.40;;;;;;;13.09;63.97;99024.22;10412114;28;20041;-63
2024/04/04 08:56:13;;;;;;;2.45;0.88;;;;;;;12.93;64.63;99037.78;10428941;28;20805;-63
2024/04/04 09:01:14;;;;;;;0.68;0.43;;;;;;;12.83;64.65;99043.94;10428053;28;20520;-63
2024/04/04 09:06:18;;;;;;;0.25;0.25;;;;;;;12.74;64.61;99040.28;10411742;28;20061;-63
2024/04/04 09:11:26;;;;;;;3.03;0.55;;;;;;;12.90;63.36;99051.16;10411664;28;20056;-60
2024/04/04 09:16:27;;;;;;;0.20;0.20;;;;;;;13.23;63.06;99051.94;10424713;28;20045;-60
2024/04/04 09:21:28;;;;;;;0.60;0.22;;;;;;;13.33;63.26;99063.34;10424891;28;20053;-59
2024/04/04 09:26:31;;;;;;;0.52;0.45;;;;;;;13.20;62.46;99067.94;10410150;28;20050;-61
2024/04/04 09:31:40;;;;;;;2.28;1.33;;;;;;;13.34;62.31;99072.88;10409509;28;20413;-60
2024/04/04 09:36:43;;;;;;;0.68;0.65;;;;;;;13.27;62.42;99063.84;10425119;28;20521;-60
2024/04/04 09:41:44;;;;;;;1.27;0.60;;;;;;;13.25;62.55;99055.28;10425929;28;20053;-60
2024/04/04 09:46:46;;;;;;;0.80;0.65;;;;;;;13.51;61.60;99067.06;10426221;28;20033;-60
2024/04/04 09:51:50;;;;;;;0.40;0.40;;;;;;;13.70;60.94;99046.09;10409974;28;20041;-60
2024/04/04 09:56:53;;;;;;;0.25;0.25;;;;;;;14.39;59.58;99070.66;10423524;28;20887;-60
2024/04/04 10:02:04;;;;;;;0.38;0.38;;;;;;;15.20;58.37;99063.19;10419566;28;20116;-60
2024/04/04 10:07:05;;;;;;;0.75;0.47;;;;;;;15.99;56.06;99074.19;10419078;28;20037;-61
2024/04/04 10:12:14;;;;;;;0.57;0.30;;;;;;;15.45;55.79;99069.63;10406535;28;20060;-60
2024/04/04 10:17:15;;;;;;;0.28;0.28;;;;;;;15.10;56.63;99074.72;10423305;28;20535;-60
2024/04/04 10:22:17;;;;;;;0.47;0.47;;;;;;;15.20;56.81;99065.84;10422146;28;20201;-60
2024/04/04 10:27:19;;;;;;;5.30;0.50;;;;;;;14.86;57.32;99056.72;10424625;28;20129;-60
2024/04/04 10:32:20;;;;;;;0.35;0.35;;;;;;;14.43;57.69;99070.22;10423534;28;20517;-60
2024/04/04 10:37:21;;;;;;;0.38;0.38;;;;;;;14.23;58.35;99107.16;10403315;28;20037;-60
2024/04/04 10:42:23;;;;;;;0.70;0.40;;;;;;;14.04;57.72;99112.38;10424407;28;20411;-60
2024/04/04 10:47:28;;;;;;;0.70;0.30;;;;;;;14.16;57.14;99116.56;10427561;28;20033;-60
2024/04/04 10:52:30;;;;;;;1.25;0.68;;;;;;;14.23;57.69;99117.66;10428547;28;20125;-61
2024/04/04 10:57:31;;;;;;;0.43;0.40;;;;;;;14.30;57.44;99124.06;10426515;28;20044;-60
2024/04/04 11:02:32;;;;;;;0.30;0.30;;;;;;;14.51;56.97;99130.94;10427353;28;20052;-60
2024/04/04 11:07:33;;;;;;;0.88;0.68;;;;;;;14.66;56.38;99130.53;10413757;28;20060;-61
2024/04/04 11:12:34;;;;;;;0.40;0.40;;;;;;;14.69;56.07;99141.66;10427332;28;20957;-60
2024/04/04 11:17:37;;;;;;;0.63;0.38;;;;;;;14.76;55.52;99136.66;10430330;28;20057;-60
2024/04/04 11:22:39;;;;;;;0.50;0.32;;;;;;;14.86;54.25;99138.31;10427312;28;20048;-60
2024/04/04 11:27:40;;;;;;;0.32;0.32;;;;;;;14.47;54.46;99132.13;10429310;28;20060;-60
2024/04/04 11:32:41;;;;;;;0.68;0.30;;;;;;;14.70;54.79;99131.91;10429479;28;20431;-60
2024/04/04 11:37:42;;;;;;;0.57;0.40;;;;;;;14.66;54.38;99147.16;10424672;28;20049;-60
2024/04/04 11:42:43;;;;;;;3.78;0.68;;;;;;;14.26;53.21;99160.34;10413259;28;20053;-60
2024/04/04 11:47:46;;;;;;;0.32;0.30;;;;;;;14.33;53.73;99168.53;10424599;28;20095;-60
2024/04/04 11:52:47;;;;;;;0.40;0.40;;;;;;;14.48;53.75;99173.28;10431943;28;20132;-60
2024/04/04 11:57:48;;;;;;;0.20;0.20;;;;;;;14.76;53.09;99174.31;10430434;28;20899;-60
2024/04/04 12:02:50;;;;;;;0.73;0.35;;;;;;;15.12;53.01;99170.22;10448196;28;20033;-60
2024/04/04 12:07:51;;;;;;;1.65;0.40;;;;;;;15.15;52.22;99180.47;10411666;28;20040;-60
2024/04/04 12:12:53;;;;;;;0.20;0.20;;;;;;;15.52;52.16;99199.06;10412770;28;20293;-60
2024/04/04 12:19:25;;;;;;;1.40;0.63;;;;;;;15.28;52.39;99191.56;10430395;28;20060;-59
2024/04/04 12:23:15;;;;;;;1.13;0.70;;;;;;;14.90;51.98;99195.00;10429327;28;20513;-59
2024/04/04 12:28:17;;;;;;;0.40;0.40;;;;;;;14.85;51.80;99162.16;10413297;28;20057;-59
2024/04/04 12:33:18;;;;;;;1.55;0.30;;;;;;;14.97;51.47;99155.78;10430667;28;20087;-59
2024/04/04 12:38:23;;;;;;;0.40;0.40;;;;;;;14.83;50.82;99166.72;10426216;28;20061;-59
2024/04/04 12:43:24;;;;;;;0.40;0.40;;;;;;;14.61;52.04;99202.03;10410977;28;20033;-59
2024/04/04 12:48:25;;;;;;;0.40;0.30;;;;;;;14.12;52.22;99205.41;10411551;28;20053;-59
2024/04/04 12:53:26;;;;;;;0.30;0.30;;;;;;;14.68;52.31;99194.38;10412992;28;20048;-59
2024/04/04 12:58:27;;;;;;;2.92;1.00;;;;;;;14.75;51.69;99141.09;10412862;28;20048;-60
2024/04/04 13:03:28;;;;;;;1.35;0.98;;;;;;;14.67;51.78;99150.63;10411875;28;20037;-60
2024/04/04 13:08:29;;;;;;;1.08;0.60;;;;;;;14.53;51.83;99163.19;10428196;28;20067;-61
2024/04/04 13:13:30;;;;;;;0.63;0.60;;;;;;;14.71;52.01;99159.91;10412702;28;20394;-60
2024/04/04 13:18:31;;;;;;;0.88;0.60;;;;;;;14.98;51.41;99160.09;10428454;28;20037;-60
2024/04/04 13:23:32;;;;;;;2.38;1.30;;;;;;;15.57;50.80;99171.31;10428163;28;20037;-61
2024/04/04 13:28:34;;;;;;;0.50;0.50;;;;;;;15.68;50.18;99173.78;10412674;28;20395;-61
2024/04/04 13:33:35;;;;;;;0.85;0.40;;;;;;;15.73;49.76;99178.66;10409575;28;20048;-61
2024/04/04 13:38:35;;;;;;;0.20;0.20;;;;;;;15.48;49.35;99181.84;10422832;28;20063;-60
2024/04/04 13:43:37;;;;;;;0.30;0.30;;;;;;;15.69;49.69;99175.47;10419597;28;20111;-61
2024/04/04 13:48:39;;;;;;;0.43;0.40;;;;;;;15.94;49.18;99174.81;10454302;28;20040;-62
2024/04/04 13:53:40;;;;;;;0.65;0.40;;;;;;;15.98;48.21;99163.00;10414917;28;20976;-60
2024/04/04 13:58:41;;;;;;;0.98;0.40;;;;;;;16.13;48.73;99161.59;10426003;28;20432;-60
2024/04/04 14:03:42;;;;;;;0.77;0.30;;;;;;;16.05;48.03;99156.19;10424108;28;20064;-60
2024/04/04 14:08:43;;;;;;;1.92;0.50;;;;;;;16.36;47.20;99158.56;10424777;28;20526;-61
2024/04/04 14:13:44;;;;;;;0.45;0.43;;;;;;;16.42;46.82;99152.69;10422317;28;20052;-61
2024/04/04 14:18:46;;;;;;;0.38;0.28;;;;;;;16.44;46.43;99163.97;10433740;28;20080;-59
2024/04/04 14:23:47;;;;;;;2.22;0.68;;;;;;;16.58;46.37;99158.19;10434312;28;20043;-60
2024/04/04 14:28:49;;;;;;;2.13;0.60;;;;;;;16.80;45.97;99168.31;10434365;28;20060;-60
2024/04/04 14:33:51;;;;;;;4.50;0.88;;;;;;;16.51;45.69;99165.06;10432347;28;20144;-60
2024/04/04 14:38:52;;;;;;;1.13;0.50;;;;;;;16.70;45.48;99172.84;10414868;28;20056;-60
2024/04/04 14:43:53;;;;;;;1.67;0.55;;;;;;;16.55;45.83;99198.91;10431310;28;20608;-60
2024/04/04 14:48:54;;;;;;;1.38;0.68;;;;;;;16.13;45.97;99195.88;10431328;28;20048;-60
2024/04/04 14:53:55;;;;;;;0.95;0.60;;;;;;;15.98;47.08;99205.22;10416407;28;20088;-60
2024/04/04 14:58:56;;;;;;;1.48;0.50;;;;;;;15.97;46.59;99208.84;10432204;28;20091;-60
2024/04/04 15:03:57;;;;;;;1.50;0.73;;;;;;;15.91;46.87;99214.69;10429726;28;20045;-60
2024/04/04 15:08:58;;;;;;;1.25;0.40;;;;;;;15.66;48.30;99233.72;10431569;28;20041;-59
2024/04/04 15:14:00;;;;;;;1.80;0.82;;;;;;;15.35;49.63;99237.44;10431475;28;20064;-60
2024/04/04 15:19:01;;;;;;;4.55;2.70;;;;;;;15.10;50.70;99248.53;10430266;28;20052;-60
2024/04/04 15:24:02;;;;;;;0.65;0.60;;;;;;;15.20;51.76;99226.50;10422835;28;20076;-60
2024/04/04 15:29:03;;;;;;;2.05;0.95;;;;;;;15.11;51.93;99227.31;10393316;28;20041;-60
2024/04/04 15:34:04;;;;;;;3.25;0.90;;;;;;;15.24;52.03;99211.25;10426324;28;20045;-60
2024/04/04 15:39:05;;;;;;;1.48;0.60;;;;;;;15.34;52.36;99215.56;10413475;28;20485;-60
2024/04/04 15:44:08;;;;;;;1.20;0.60;;;;;;;15.68;51.84;99215.13;10426985;28;20055;-60
2024/04/04 15:49:11;;;;;;;1.33;0.45;;;;;;;15.75;51.71;99232.91;10424692;28;20178;-60
2024/04/04 15:54:12;;;;;;;2.75;0.60;;;;;;;15.95;51.67;99223.97;10427812;28;20049;-60
2024/04/04 15:59:13;;;;;;;1.75;1.00;;;;;;;15.93;51.15;99220.66;10412026;28;20401;-60
2024/04/04 16:04:14;;;;;;;0.57;0.40;;;;;;;15.75;51.21;99222.34;10410055;28;20148;-60
2024/04/04 16:09:15;;;;;;;4.60;2.85;;;;;;;15.77;51.05;99233.59;10427752;28;20548;-60
2024/04/04 16:14:16;;;;;;;0.93;0.68;;;;;;;15.80;50.13;99246.47;10410857;28;20122;-60
2024/04/04 16:19:16;;;;;;;3.65;0.73;;;;;;;15.94;50.45;99259.22;10445137;28;20051;-60
2024/04/04 16:24:18;;;;;;;3.85;0.93;;;;;;;15.75;51.12;99272.44;10413575;28;20068;-60
2024/04/04 16:29:19;;;;;;;0.65;0.60;;;;;;;15.40;51.00;99258.97;10432258;28;20091;-60
2024/04/04 16:34:20;;;;;;;2.25;0.75;;;;;;;15.53;50.43;99264.00;10431703;28;20098;-60
2024/04/04 16:39:21;;;;;;;2.33;0.82;;;;;;;15.62;50.56;99263.97;10431279;28;20056;-60
2024/04/04 16:44:22;;;;;;;1.90;0.68;;;;;;;15.59;50.61;99269.50;10427494;28;20041;-60
2024/04/04 16:49:23;;;;;;;1.98;0.98;;;;;;;15.62;50.66;99265.78;10431347;28;20077;-60
2024/04/04 16:54:24;;;;;;;2.90;0.60;;;;;;;15.67;50.29;99280.22;10423944;28;20048;-60
2024/04/04 16:59:25;;;;;;;2.42;0.82;;;;;;;14.89;51.60;99284.66;10428003;28;20191;-60
2024/04/04 17:04:26;;;;;;;1.63;0.70;;;;;;;14.58;52.53;99302.28;10411206;28;20033;-60
2024/04/04 17:09:28;;;;;;;1.50;0.70;;;;;;;14.48;52.93;99294.31;10395278;28;20041;-60
2024/04/04 17:14:29;;;;;;;6.10;1.13;;;;;;;14.26;53.46;99302.38;10410096;28;20049;-60
2024/04/04 17:19:30;;;;;;;1.02;0.60;;;;;;;14.17;54.20;99310.19;10410688;28;20045;-60
2024/04/04 17:24:31;;;;;;;2.63;0.93;;;;;;;14.16;54.04;99321.69;10428987;28;20342;-59
2024/04/04 17:29:34;;;;;;;5.25;1.20;;;;;;;14.11;54.21;99324.69;10427113;28;20551;-59
2024/04/04 17:34:36;;;;;;;1.65;0.88;;;;;;;14.08;54.32;99319.69;10427524;28;20509;-59
2024/04/04 17:39:37;;;;;;;2.67;0.75;;;;;;;13.95;54.69;99333.97;10425605;28;20055;-61
2024/04/04 17:44:39;;;;;;;1.45;0.90;;;;;;;13.92;54.81;99345.59;10409118;28;20451;-61
2024/04/04 17:49:40;;;;;;;4.15;0.80;;;;;;;14.03;54.81;99347.31;10424325;28;20492;-61
2024/04/04 17:54:42;;;;;;;1.48;0.80;;;;;;;14.09;54.56;99358.16;10441892;28;20527;-60
2024/04/04 17:59:43;;;;;;;1.92;1.10;;;;;;;14.14;54.63;99365.69;10425832;28;20061;-60
2024/04/04 18:04:46;;;;;;;4.70;0.93;;;;;;;14.30;54.18;99372.16;10423735;28;20278;-62
2024/04/04 18:09:47;;;;;;;5.00;1.15;;;;;;;14.29;54.54;99382.78;10424443;28;20049;-62
2024/04/04 18:14:48;;;;;;;2.67;1.13;;;;;;;14.20;54.83;99387.03;10413709;28;20060;-62
2024/04/04 18:19:49;;;;;;;2.20;0.80;;;;;;;14.18;54.84;99391.59;10410829;28;20053;-63
2024/04/04 18:24:50;;;;;;;5.75;1.20;;;;;;;14.06;54.97;99404.91;10427194;28;20091;-63
2024/04/04 18:29:51;;;;;;;0.65;0.63;;;;;;;14.00;54.95;99410.69;10429082;28;20041;-63
2024/04/04 18:34:51;;;;;;;1.73;0.63;;;;;;;13.85;55.46;99420.66;10426717;28;20052;-62
2024/04/04 18:39:52;;;;;;;1.55;0.95;;;;;;;13.88;55.45;99417.75;10405656;28;20424;-62
2024/04/04 18:44:53;;;;;;;1.10;0.65;;;;;;;13.87;55.32;99434.50;10425167;28;20037;-62
2024/04/04 18:49:55;;;;;;;1.67;0.73;;;;;;;13.83;55.68;99430.44;10426507;28;20088;-62
2024/04/04 18:54:56;;;;;;;0.85;0.68;;;;;;;13.68;55.74;99435.16;10427200;28;20067;-62
2024/04/04 18:59:57;;;;;;;3.42;0.82;;;;;;;13.55;55.83;99457.28;10427292;28;20045;-62
2024/04/04 19:04:58;;;;;;;2.88;0.75;;;;;;;13.40;55.98;99464.53;10429549;28;20042;-61
2024/04/04 19:09:59;;;;;;;6.18;0.95;;;;;;;13.29;56.13;99468.97;10431814;28;21217;-61
2024/04/04 19:15:02;;;;;;;2.63;0.90;;;;;;;13.13;56.51;99486.88;10413759;28;20157;-61
2024/04/04 19:20:08;;;;;;;4.65;1.17;;;;;;;13.05;56.49;99500.56;10415815;28;20532;-61
2024/04/04 19:25:09;;;;;;;5.20;0.85;;;;;;;12.91;56.79;99503.41;10435580;28;20048;-61
2024/04/04 19:30:11;;;;;;;3.30;1.05;;;;;;;12.82;57.04;99515.44;10433511;28;20084;-61
2024/04/04 19:35:12;;;;;;;2.35;0.70;;;;;;;12.79;56.98;99526.19;10432903;28;20041;-62
2024/04/04 19:40:14;;;;;;;2.60;1.17;;;;;;;12.67;57.28;99524.47;10429678;28;20049;-62
2024/04/04 19:45:16;;;;;;;3.25;1.08;;;;;;;12.68;56.87;99527.94;10415773;28;20052;-62
2024/04/04 19:50:17;;;;;;;2.90;1.05;;;;;;;12.70;57.05;99526.84;10431081;28;20053;-62
2024/04/04 19:55:24;;;;;;;1.98;0.88;;;;;;;12.68;57.32;99523.50;10427939;28;20118;-61
2024/04/04 20:00:26;;;;;;;2.00;0.88;;;;;;;12.60;57.34;99527.69;10425499;28;20134;-62
2024/04/04 20:05:29;;;;;;;1.25;0.70;;;;;;;12.60;57.25;99532.94;10414733;28;20529;-62
2024/04/04 20:10:32;;;;;;;2.85;1.23;;;;;;;12.64;57.58;99543.06;10430549;28;20049;-62
2024/04/04 20:15:33;;;;;;;2.25;0.90;;;;;;;12.71;57.47;99539.03;10430784;28;20068;-62
2024/04/04 20:20:36;;;;;;;3.58;1.65;;;;;;;12.62;57.62;99539.72;10433096;28;20041;-62
2024/04/04 20:25:38;;;;;;;2.55;0.88;;;;;;;12.63;57.73;99541.41;10434028;28;20056;-61
2024/04/04 20:30:41;;;;;;;3.20;0.80;;;;;;;12.49;58.08;99544.22;10431350;28;20041;-61
2024/04/04 20:35:43;;;;;;;3.92;1.13;;;;;;;12.52;57.81;99549.22;10431765;28;20045;-61
2024/04/04 20:40:45;;;;;;;1.65;0.60;;;;;;;12.43;57.88;99554.31;10429669;28;20049;-61
2024/04/04 20:45:49;;;;;;;1.60;0.75;;;;;;;12.34;58.20;99555.81;10415011;28;20080;-62
2024/04/04 20:50:50;;;;;;;1.38;1.00;;;;;;;12.26;58.30;99550.25;10429395;28;20043;-62
2024/04/04 20:55:54;;;;;;;1.98;0.73;;;;;;;12.15;58.51;99552.78;10428877;28;20524;-62
2024/04/04 21:00:56;;;;;;;3.08;0.95;;;;;;;12.02;58.66;99560.72;10429657;28;20041;-62
2024/04/04 21:05:59;;;;;;;2.85;0.90;;;;;;;11.97;58.89;99569.84;10428191;28;20458;-62
2024/04/04 21:11:01;;;;;;;1.75;0.90;;;;;;;11.90;59.10;99574.72;10427896;28;20167;-62
2024/04/04 21:16:05;;;;;;;3.13;0.82;;;;;;;11.92;59.47;99571.97;10429055;28;20041;-62
2024/04/04 21:21:07;;;;;;;4.70;0.90;;;;;;;11.90;59.48;99581.72;10430134;28;20051;-62
2024/04/04 21:26:12;;;;;;;1.80;0.75;;;;;;;11.96;59.63;99589.16;10428225;28;20076;-61
2024/04/04 21:31:15;;;;;;;2.50;0.85;;;;;;;12.07;59.56;99595.28;10425594;28;20060;-61
2024/04/04 21:36:33;;;;;;;1.67;0.80;;;;;;;12.13;59.86;99596.63;10412892;28;20413;-61
2024/04/04 21:41:36;;;;;;;1.75;0.80;;;;;;;12.26;59.50;99601.84;10428911;28;20045;-61
2024/04/04 21:46:37;;;;;;;1.58;0.68;;;;;;;12.26;59.59;99609.72;10412223;28;20564;-61
2024/04/04 21:51:38;;;;;;;1.23;0.82;;;;;;;12.21;59.45;99610.06;10425133;28;20077;-61
2024/04/04 21:56:39;;;;;;;1.67;0.90;;;;;;;12.04;59.61;99615.66;10410724;28;20720;-61
2024/04/04 22:01:40;;;;;;;1.77;0.90;;;;;;;11.86;60.20;99627.44;10427484;28;20063;-61
2024/04/04 22:06:41;;;;;;;2.65;1.58;;;;;;;11.79;60.24;99623.53;10427185;28;20409;-61
2024/04/04 22:11:43;;;;;;;3.45;1.15;;;;;;;11.71;60.61;99618.00;10424677;28;20497;-61
2024/04/04 22:16:44;;;;;;;1.17;0.88;;;;;;;11.72;60.34;99619.69;10382780;28;20095;-61
2024/04/04 22:21:46;;;;;;;3.03;1.20;;;;;;;11.53;60.58;99614.03;10385414;28;20045;-61
2024/04/04 22:26:47;;;;;;;1.98;0.80;;;;;;;11.44;60.63;99615.50;10370589;28;20118;-61
2024/04/04 22:31:48;;;;;;;3.95;1.55;;;;;;;11.32;61.05;99612.91;10362486;28;20088;-61
2024/04/04 22:36:50;;;;;;;1.55;0.88;;;;;;;11.21;61.33;99613.63;10371019;28;20111;-61
2024/04/04 22:41:51;;;;;;;5.95;1.88;;;;;;;11.26;61.30;99611.50;10394080;28;20037;-61
2024/04/04 22:46:52;;;;;;;3.33;1.20;;;;;;;11.27;61.44;99611.41;10396507;28;20061;-62
2024/04/04 22:51:53;;;;;;;1.90;1.00;;;;;;;11.44;61.52;99612.06;10394768;28;20041;-63
2024/04/04 22:56:54;;;;;;;1.70;0.90;;;;;;;11.59;61.42;99613.59;10392480;28;20749;-62
2024/04/04 23:01:54;;;;;;;3.92;1.00;;;;;;;11.68;61.24;99613.00;10394176;28;20041;-62
2024/04/04 23:06:55;;;;;;;2.20;1.10;;;;;;;11.70;61.45;99614.53;10393753;28;20749;-62
2024/04/04 23:11:57;;;;;;;1.83;0.93;;;;;;;11.73;61.41;99616.13;10378192;28;20055;-62
2024/04/04 23:16:57;;;;;;;3.10;0.95;;;;;;;11.85;61.04;99608.25;10435047;28;20037;-62
2024/04/04 23:21:58;;;;;;;4.35;0.98;;;;;;;11.98;60.95;99621.31;10449799;28;20060;-62
2024/04/04 23:26:59;;;;;;;5.35;1.20;;;;;;;11.96;60.89;99617.97;10417655;28;20037;-62